createdAt,value
2023-05-21T00:00:02.334Z,48.11
2023-05-21T00:02:40.111Z,47.67
2023-05-21T00:05:14.336Z,49.57
2023-05-21T00:07:42.373Z,50.79
2023-05-21T00:10:11.791Z,50.61
2023-05-21T00:12:39.433Z,49.41
2023-05-21T00:15:07.853Z,52.73
2023-05-21T00:17:36.962Z,49.08
2023-05-21T00:20:08.769Z,48.62
2023-05-21T00:22:37.010Z,52.80
2023-05-21T00:25:04.966Z,50.41
2023-05-21T00:27:33.971Z,49.98
2023-05-21T00:30:01.644Z,50.73
2023-05-21T00:32:30.567Z,49.34
2023-05-21T00:34:58.296Z,48.38
2023-05-21T00:37:25.942Z,46.01
2023-05-21T00:39:53.633Z,46.04
2023-05-21T00:42:21.389Z,45.79
2023-05-21T00:44:50.453Z,47.18
2023-05-21T00:47:18.555Z,46.93
2023-05-21T00:49:47.013Z,50.31
2023-05-21T00:52:15.053Z,61.23
2023-05-21T00:54:42.650Z,57.30
2023-05-21T00:57:10.325Z,58.00
2023-05-21T00:59:38.012Z,63.35
2023-05-21T01:02:09.439Z,62.71
2023-05-21T01:04:37.142Z,56.55
2023-05-21T01:07:06.293Z,57.05
2023-05-21T01:09:33.964Z,52.90
2023-05-21T01:12:01.675Z,52.45
2023-05-21T01:14:29.305Z,49.02
2023-05-21T01:16:56.939Z,52.87
2023-05-21T01:19:26.211Z,50.00
2023-05-21T01:21:56.233Z,51.10
2023-05-21T01:24:25.432Z,47.94
2023-05-21T01:26:53.039Z,51.14
2023-05-21T01:29:20.860Z,50.53
2023-05-21T01:31:52.310Z,54.39
2023-05-21T01:34:20.630Z,52.09
2023-05-21T01:36:48.973Z,51.57
2023-05-21T01:39:17.121Z,48.43
2023-05-21T01:41:46.361Z,52.46
2023-05-21T01:44:14.007Z,58.80
2023-05-21T01:46:41.690Z,53.08
2023-05-21T01:49:09.395Z,52.79
2023-05-21T01:51:37.102Z,57.61
2023-05-21T01:54:04.863Z,60.82
2023-05-21T01:56:33.962Z,55.80
2023-05-21T01:59:03.262Z,54.15
2023-05-21T02:01:31.214Z,56.15
2023-05-21T02:03:59.017Z,62.49
2023-05-21T02:06:26.730Z,62.20
2023-05-21T02:08:55.528Z,70.17
2023-05-21T02:11:23.374Z,66.26
2023-05-21T02:13:51.026Z,64.87
2023-05-21T02:16:22.427Z,61.46
2023-05-21T02:18:53.631Z,59.60
2023-05-21T02:21:21.634Z,56.03
2023-05-21T02:23:49.346Z,56.25
2023-05-21T02:26:18.008Z,54.90
2023-05-21T02:28:45.655Z,52.72
2023-05-21T02:31:13.497Z,52.86
2023-05-21T02:33:42.983Z,60.24
2023-05-21T02:36:13.047Z,61.05
2023-05-21T02:38:43.800Z,58.12
2023-05-21T02:41:11.999Z,58.13
2023-05-21T02:43:40.235Z,61.39
2023-05-21T02:46:08.327Z,55.25
2023-05-21T02:48:36.581Z,53.91
2023-05-21T02:51:06.996Z,57.17
2023-05-21T02:53:34.763Z,79.91
2023-05-21T02:56:03.228Z,66.32
2023-05-21T02:58:30.883Z,63.89
2023-05-21T03:00:58.667Z,60.33
2023-05-21T03:03:26.611Z,64.17
2023-05-21T03:05:54.317Z,64.18
2023-05-21T03:08:23.319Z,58.70
2023-05-21T03:10:50.963Z,59.26
2023-05-21T03:13:18.696Z,61.05
2023-05-21T03:15:46.555Z,58.75
2023-05-21T03:18:14.895Z,59.46
2023-05-21T03:20:44.305Z,55.78
2023-05-21T03:23:16.250Z,55.96
2023-05-21T03:25:46.924Z,55.15
2023-05-21T03:28:15.524Z,56.24
2023-05-21T03:30:47.295Z,60.25
2023-05-21T03:33:35.200Z,57.56
2023-05-21T03:36:12.114Z,55.72
2023-05-21T03:38:39.764Z,54.59
2023-05-21T03:41:09.395Z,59.39
2023-05-21T03:43:37.732Z,59.04
2023-05-21T03:46:05.564Z,58.37
2023-05-21T03:48:51.848Z,57.58
2023-05-21T03:51:22.977Z,54.87
2023-05-21T03:53:50.853Z,52.29
2023-05-21T03:56:20.163Z,55.61
2023-05-21T03:58:48.561Z,56.93
2023-05-21T04:01:17.716Z,53.60
2023-05-21T04:03:45.848Z,55.22
2023-05-21T04:06:15.546Z,60.62
2023-05-21T04:08:44.483Z,54.43
2023-05-21T04:11:12.164Z,56.24
2023-05-21T04:13:41.198Z,59.64
2023-05-21T04:16:09.847Z,62.75
2023-05-21T04:18:37.569Z,63.10
2023-05-21T04:21:06.092Z,57.89
2023-05-21T04:23:33.773Z,67.58
2023-05-21T04:26:03.050Z,64.72
2023-05-21T04:28:30.801Z,64.12
2023-05-21T04:31:00.005Z,58.76
2023-05-21T04:33:28.616Z,52.51
2023-05-21T04:35:56.266Z,54.29
2023-05-21T04:38:26.111Z,52.24
2023-05-21T04:40:53.969Z,58.34
2023-05-21T04:43:25.569Z,59.41
2023-05-21T04:45:54.965Z,58.10
2023-05-21T04:48:24.912Z,53.88
2023-05-21T04:50:53.518Z,54.36
2023-05-21T04:53:21.862Z,61.85
2023-05-21T04:55:49.645Z,59.94
2023-05-21T04:58:18.359Z,54.45
2023-05-21T05:00:47.365Z,56.43
2023-05-21T05:03:16.375Z,50.96
2023-05-21T05:05:46.414Z,54.42
2023-05-21T05:08:15.964Z,60.83
2023-05-21T05:10:44.136Z,56.62
2023-05-21T05:13:12.582Z,58.73
2023-05-21T05:15:40.312Z,61.04
2023-05-21T05:18:08.521Z,52.16
2023-05-21T05:20:36.393Z,55.83
2023-05-21T05:23:05.537Z,51.45
2023-05-21T05:25:33.564Z,51.56
2023-05-21T05:28:01.468Z,53.43
2023-05-21T05:30:29.230Z,57.52
2023-05-21T05:33:03.504Z,58.97
2023-05-21T05:35:31.670Z,51.29
2023-05-21T05:37:59.333Z,45.76
2023-05-21T05:40:28.610Z,51.05
2023-05-21T05:42:56.254Z,51.76
2023-05-21T05:45:26.593Z,54.28
2023-05-21T05:47:54.495Z,54.92
2023-05-21T05:50:22.370Z,61.87
2023-05-21T05:52:51.263Z,54.19
2023-05-21T05:55:19.017Z,48.32
2023-05-21T05:57:48.063Z,51.11
2023-05-21T06:00:18.442Z,48.58
2023-05-21T06:02:49.265Z,50.70
2023-05-21T06:05:17.240Z,51.05
2023-05-21T06:07:45.033Z,49.79
2023-05-21T06:10:12.732Z,53.43
2023-05-21T06:12:40.465Z,50.59
2023-05-21T06:15:10.359Z,49.91
2023-05-21T06:17:38.190Z,48.04
2023-05-21T06:20:06.553Z,49.20
2023-05-21T06:22:34.292Z,50.96
2023-05-21T06:25:01.985Z,51.40
2023-05-21T06:27:30.582Z,49.35
2023-05-21T06:29:59.399Z,50.58
2023-05-21T06:32:28.506Z,49.23
2023-05-21T06:34:56.226Z,53.64
2023-05-21T06:37:25.949Z,52.48
2023-05-21T06:39:54.366Z,51.98
2023-05-21T06:42:22.737Z,53.25
2023-05-21T06:45:10.370Z,49.09
2023-05-21T06:47:41.297Z,45.29
2023-05-21T06:50:09.461Z,45.68
2023-05-21T06:52:37.258Z,44.92
2023-05-21T06:55:05.348Z,45.95
2023-05-21T06:57:52.956Z,48.01
2023-05-21T07:00:20.688Z,45.35
2023-05-21T07:02:50.697Z,46.81
2023-05-21T07:05:18.527Z,43.68
2023-05-21T07:07:46.252Z,44.45
2023-05-21T07:10:14.266Z,42.81
2023-05-21T07:12:41.986Z,42.09
2023-05-21T07:15:10.517Z,40.91
2023-05-21T07:17:38.539Z,44.47
2023-05-21T07:20:09.828Z,44.73
2023-05-21T07:22:39.825Z,48.72
2023-05-21T07:25:09.548Z,41.22
2023-05-21T07:27:37.224Z,42.46
2023-05-21T07:30:05.242Z,43.20
2023-05-21T07:32:33.405Z,46.04
2023-05-21T07:35:02.913Z,45.14
2023-05-21T07:37:32.710Z,43.75
2023-05-21T07:40:00.504Z,40.90
2023-05-21T07:42:28.507Z,40.26
2023-05-21T07:44:57.838Z,39.91
2023-05-21T07:47:27.249Z,42.68
2023-05-21T07:49:55.244Z,45.61
2023-05-21T07:52:23.055Z,41.46
2023-05-21T07:54:52.319Z,39.60
2023-05-21T07:57:23.289Z,38.94
2023-05-21T08:00:01.541Z,40.51
2023-05-21T08:02:32.223Z,42.86
2023-05-21T08:05:01.548Z,42.66
2023-05-21T08:07:29.342Z,42.48
2023-05-21T08:09:58.479Z,38.57
2023-05-21T08:12:26.477Z,37.67
2023-05-21T08:14:54.320Z,40.50
2023-05-21T08:17:22.679Z,40.15
2023-05-21T08:19:50.642Z,38.42
2023-05-21T08:22:18.487Z,40.08
2023-05-21T08:24:46.922Z,42.20
2023-05-21T08:27:16.436Z,40.94
2023-05-21T08:29:44.324Z,40.42
2023-05-21T08:32:12.097Z,40.56
2023-05-21T08:34:39.966Z,43.33
2023-05-21T08:37:27.917Z,38.02
2023-05-21T08:40:31.160Z,36.80
2023-05-21T08:43:00.258Z,37.17
2023-05-21T08:45:40.567Z,35.52
2023-05-21T08:48:08.701Z,36.47
2023-05-21T08:50:37.382Z,35.72
2023-05-21T08:53:19.888Z,36.90
2023-05-21T08:55:57.174Z,35.88
2023-05-21T08:58:30.185Z,36.19
2023-05-21T09:00:58.955Z,35.24
2023-05-21T09:03:29.226Z,36.55
2023-05-21T09:05:56.983Z,36.93
2023-05-21T09:08:28.486Z,33.72
2023-05-21T09:11:16.221Z,34.12
2023-05-21T09:13:51.481Z,32.67
2023-05-21T09:16:25.867Z,33.27
2023-05-21T09:18:54.174Z,35.02
2023-05-21T09:21:28.674Z,33.87
2023-05-21T09:24:00.681Z,35.55
2023-05-21T09:26:28.829Z,35.60
2023-05-21T09:29:01.791Z,34.92
2023-05-21T09:31:29.692Z,33.55
2023-05-21T09:34:01.929Z,32.45
2023-05-21T09:36:34.642Z,30.71
2023-05-21T09:39:02.513Z,30.48
2023-05-21T09:41:35.935Z,31.12
2023-05-21T09:44:06.548Z,32.17
2023-05-21T09:46:39.357Z,31.29
2023-05-21T09:49:24.417Z,31.73
2023-05-21T09:51:54.437Z,31.10
2023-05-21T09:54:22.274Z,29.53
2023-05-21T09:56:49.915Z,31.18
2023-05-21T09:59:18.906Z,31.56
2023-05-21T10:01:46.767Z,30.28
2023-05-21T10:04:14.533Z,29.75
2023-05-21T10:06:43.329Z,30.79
2023-05-21T10:09:11.652Z,29.92
2023-05-21T10:11:39.583Z,31.76
2023-05-21T10:14:07.505Z,29.15
2023-05-21T10:16:37.155Z,28.97
2023-05-21T10:19:05.857Z,28.17
2023-05-21T10:21:34.797Z,29.46
2023-05-21T10:24:02.444Z,27.57
2023-05-21T10:26:30.124Z,28.12
2023-05-21T10:29:00.007Z,27.94
2023-05-21T10:31:27.833Z,26.74
2023-05-21T10:33:57.050Z,27.37
2023-05-21T10:36:25.092Z,26.80
2023-05-21T10:38:52.782Z,25.96
2023-05-21T10:41:20.953Z,25.44
2023-05-21T10:43:49.682Z,25.60
2023-05-21T10:46:32.215Z,27.73
2023-05-21T10:49:04.243Z,27.07
2023-05-21T10:51:36.080Z,26.69
2023-05-21T10:54:22.184Z,26.11
2023-05-21T10:56:50.616Z,26.11
2023-05-21T10:59:22.213Z,25.09
2023-05-21T11:01:50.386Z,25.36
2023-05-21T11:04:21.788Z,25.80
2023-05-21T11:06:49.636Z,26.75
2023-05-21T11:09:17.446Z,26.29
2023-05-21T11:11:46.216Z,27.75
2023-05-21T11:14:35.406Z,27.29
2023-05-21T11:17:03.813Z,27.00
2023-05-21T11:19:39.372Z,26.77
2023-05-21T11:22:10.707Z,25.98
2023-05-21T11:24:38.750Z,26.28
2023-05-21T11:27:07.104Z,27.52
2023-05-21T11:29:41.926Z,25.33
2023-05-21T11:32:10.358Z,25.24
2023-05-21T11:34:40.410Z,25.49
2023-05-21T11:37:40.718Z,25.22
2023-05-21T11:40:17.704Z,23.62
2023-05-21T11:42:46.201Z,23.39
2023-05-21T11:45:13.845Z,22.33
2023-05-21T11:47:41.593Z,21.69
2023-05-21T11:50:13.520Z,21.06
2023-05-21T11:52:41.303Z,21.06
2023-05-21T11:55:09.460Z,20.66
2023-05-21T11:57:37.809Z,21.58
2023-05-21T12:00:13.756Z,20.45
2023-05-21T12:02:45.151Z,20.60
2023-05-21T12:05:14.287Z,21.05
2023-05-21T12:07:42.251Z,21.05
2023-05-21T12:10:10.267Z,20.69
2023-05-21T12:12:53.268Z,20.53
2023-05-21T12:15:22.779Z,20.77
2023-05-21T12:17:51.028Z,19.07
2023-05-21T12:20:20.210Z,20.80
2023-05-21T12:22:49.422Z,19.23
2023-05-21T12:25:19.811Z,20.81
2023-05-21T12:27:47.640Z,21.11
2023-05-21T12:30:15.295Z,20.85
2023-05-21T12:32:44.377Z,21.07
2023-05-21T12:35:23.247Z,22.27
2023-05-21T12:37:51.742Z,20.00
2023-05-21T12:40:22.343Z,20.53
2023-05-21T12:42:50.405Z,19.47
2023-05-21T12:45:18.657Z,20.75
2023-05-21T12:47:48.870Z,21.24
2023-05-21T12:50:16.730Z,20.62
2023-05-21T12:52:45.744Z,21.34
2023-05-21T12:55:14.013Z,19.39
2023-05-21T12:57:43.784Z,19.97
2023-05-21T13:00:11.969Z,20.11
2023-05-21T13:02:40.232Z,22.80
2023-05-21T13:05:08.776Z,20.08
2023-05-21T13:07:37.681Z,19.71
2023-05-21T13:10:07.523Z,20.24
2023-05-21T13:12:35.423Z,19.04
2023-05-21T13:15:03.604Z,20.57
2023-05-21T13:17:31.567Z,22.17
2023-05-21T13:20:06.873Z,21.10
2023-05-21T13:22:35.431Z,20.82
2023-05-21T13:25:03.154Z,21.29
2023-05-21T13:27:32.179Z,19.22
2023-05-21T13:29:59.838Z,20.96
2023-05-21T13:32:27.560Z,21.15
2023-05-21T13:34:55.330Z,19.52
2023-05-21T13:37:22.985Z,17.58
2023-05-21T13:39:50.594Z,19.90
2023-05-21T13:42:18.309Z,21.63
2023-05-21T13:44:47.319Z,21.09
2023-05-21T13:47:14.975Z,19.30
2023-05-21T13:49:42.645Z,18.60
2023-05-21T13:52:10.501Z,20.03
2023-05-21T13:54:38.111Z,18.67
2023-05-21T13:57:05.837Z,19.33
2023-05-21T13:59:33.914Z,20.27
2023-05-21T14:02:03.093Z,21.63
2023-05-21T14:04:30.748Z,20.00
2023-05-21T14:06:58.468Z,19.52
2023-05-21T14:09:27.232Z,19.37
2023-05-21T14:11:55.164Z,19.40
2023-05-21T14:14:22.816Z,19.72
2023-05-21T14:16:50.728Z,20.76
2023-05-21T14:19:19.932Z,20.60
2023-05-21T14:21:47.745Z,19.97
2023-05-21T14:24:15.423Z,20.39
2023-05-21T14:26:43.116Z,21.65
2023-05-21T14:29:10.836Z,21.93
2023-05-21T14:31:38.814Z,21.74
2023-05-21T14:34:07.018Z,21.79
2023-05-21T14:36:36.391Z,21.71
2023-05-21T14:39:04.312Z,21.99
2023-05-21T14:41:32.091Z,22.12
2023-05-21T14:43:59.811Z,21.64
2023-05-21T14:46:27.660Z,20.64
2023-05-21T14:48:59.182Z,22.96
2023-05-21T14:51:27.062Z,21.71
2023-05-21T14:53:57.569Z,22.76
2023-05-21T14:56:27.219Z,22.29
2023-05-21T14:58:54.957Z,21.77
2023-05-21T15:01:22.714Z,20.87
2023-05-21T15:03:50.722Z,21.82
2023-05-21T15:06:18.422Z,21.53
2023-05-21T15:08:46.082Z,21.43
2023-05-21T15:11:15.116Z,21.39
2023-05-21T15:13:42.823Z,19.57
2023-05-21T15:16:10.495Z,20.20
2023-05-21T15:18:38.132Z,19.99
2023-05-21T15:21:06.060Z,20.96
2023-05-21T15:23:33.780Z,20.50
2023-05-21T15:26:01.536Z,21.26
2023-05-21T15:28:30.592Z,22.55
2023-05-21T15:30:58.247Z,22.25
2023-05-21T15:33:25.880Z,22.98
2023-05-21T15:35:53.578Z,22.93
2023-05-21T15:38:21.238Z,21.41
2023-05-21T15:40:48.896Z,22.66
2023-05-21T15:43:16.561Z,21.51
2023-05-21T15:45:45.624Z,22.90
2023-05-21T15:48:13.461Z,23.50
2023-05-21T15:50:41.205Z,22.45
2023-05-21T15:53:08.900Z,21.18
2023-05-21T15:55:36.756Z,23.11
2023-05-21T15:58:04.704Z,21.86
2023-05-21T16:00:32.429Z,22.47
2023-05-21T16:03:01.503Z,23.62
2023-05-21T16:05:29.300Z,23.43
2023-05-21T16:07:56.919Z,22.03
2023-05-21T16:10:24.854Z,22.85
2023-05-21T16:12:52.505Z,21.77
2023-05-21T16:15:20.191Z,22.30
2023-05-21T16:17:47.927Z,23.85
2023-05-21T16:20:18.763Z,23.30
2023-05-21T16:22:46.499Z,22.73
2023-05-21T16:25:14.101Z,21.83
2023-05-21T16:27:41.715Z,22.84
2023-05-21T16:30:09.804Z,22.20
2023-05-21T16:32:39.402Z,22.22
2023-05-21T16:35:07.511Z,22.02
2023-05-21T16:37:36.629Z,22.40
2023-05-21T16:40:04.588Z,22.16
2023-05-21T16:42:32.352Z,22.65
2023-05-21T16:44:59.986Z,23.07
2023-05-21T16:47:27.643Z,22.59
2023-05-21T16:49:55.815Z,22.55
2023-05-21T16:52:23.888Z,22.85
2023-05-21T16:54:52.962Z,23.33
2023-05-21T16:57:20.652Z,23.35
2023-05-21T16:59:48.335Z,23.38
2023-05-21T17:02:16.064Z,21.05
2023-05-21T17:04:43.736Z,23.25
2023-05-21T17:07:11.399Z,21.93
2023-05-21T17:09:39.091Z,23.32
2023-05-21T17:12:08.604Z,23.04
2023-05-21T17:14:37.232Z,22.83
2023-05-21T17:17:06.896Z,23.15
2023-05-21T17:19:34.678Z,23.55
2023-05-21T17:22:02.422Z,24.14
2023-05-21T17:24:30.066Z,23.97
2023-05-21T17:26:57.758Z,23.46
2023-05-21T17:29:26.900Z,24.63
2023-05-21T17:31:54.648Z,26.91
2023-05-21T17:34:24.551Z,26.52
2023-05-21T17:36:52.341Z,25.62
2023-05-21T17:39:20.335Z,26.33
2023-05-21T17:41:48.086Z,26.58
2023-05-21T17:44:16.876Z,25.37
2023-05-21T17:46:45.984Z,26.78
2023-05-21T17:49:13.746Z,26.65
2023-05-21T17:51:41.389Z,25.82
2023-05-21T17:54:09.083Z,25.19
2023-05-21T17:56:39.082Z,25.66
2023-05-21T17:59:07.445Z,27.17
2023-05-21T18:01:35.239Z,26.10
2023-05-21T18:04:04.712Z,27.60
2023-05-21T18:06:32.732Z,26.27
2023-05-21T18:09:00.475Z,24.25
2023-05-21T18:11:28.221Z,25.54
2023-05-21T18:13:55.861Z,26.09
2023-05-21T18:16:23.692Z,27.79
2023-05-21T18:18:51.369Z,27.10
2023-05-21T18:21:20.412Z,26.49
2023-05-21T18:23:48.092Z,26.67
2023-05-21T18:26:15.955Z,27.29
2023-05-21T18:28:43.563Z,26.83
2023-05-21T18:31:11.210Z,26.46
2023-05-21T18:33:39.322Z,26.98
2023-05-21T18:36:07.318Z,25.62
2023-05-21T18:38:36.352Z,27.53
2023-05-21T18:41:05.055Z,26.68
2023-05-21T18:43:32.709Z,25.58
2023-05-21T18:46:00.616Z,26.00
2023-05-21T18:48:28.267Z,26.40
2023-05-21T18:50:56.712Z,25.75
2023-05-21T18:53:24.362Z,26.16
2023-05-21T18:55:53.424Z,25.71
2023-05-21T18:58:21.083Z,26.34
2023-05-21T19:00:48.770Z,26.21
2023-05-21T19:03:16.445Z,25.35
2023-05-21T19:05:44.145Z,26.94
2023-05-21T19:08:11.829Z,25.33
2023-05-21T19:10:39.638Z,26.50
2023-05-21T19:13:09.033Z,27.27
2023-05-21T19:15:36.678Z,25.53
2023-05-21T19:18:04.530Z,26.87
2023-05-21T19:20:32.188Z,25.81
2023-05-21T19:22:59.840Z,25.31
2023-05-21T19:25:27.488Z,25.62
2023-05-21T19:27:55.148Z,26.05
2023-05-21T19:30:24.296Z,26.70
2023-05-21T19:32:52.091Z,26.11
2023-05-21T19:35:19.799Z,25.05
2023-05-21T19:37:47.489Z,24.70
2023-05-21T19:40:17.535Z,25.98
2023-05-21T19:42:45.302Z,25.54
2023-05-21T19:45:13.352Z,26.54
2023-05-21T19:47:42.427Z,26.36
2023-05-21T19:50:11.274Z,25.76
2023-05-21T19:52:39.097Z,26.95
2023-05-21T19:55:08.726Z,25.38
2023-05-21T19:57:37.028Z,25.00
2023-05-21T20:00:05.518Z,26.57
2023-05-21T20:02:40.645Z,24.91
2023-05-21T20:05:10.481Z,26.72
2023-05-21T20:07:38.163Z,25.40
2023-05-21T20:10:06.269Z,26.99
2023-05-21T20:12:33.952Z,26.79
2023-05-21T20:15:01.737Z,25.20
2023-05-21T20:17:30.520Z,26.43
2023-05-21T20:19:59.316Z,26.66
2023-05-21T20:22:28.366Z,26.19
2023-05-21T20:24:56.168Z,25.82
2023-05-21T20:27:23.833Z,26.11
2023-05-21T20:29:51.558Z,26.69
2023-05-21T20:32:19.202Z,25.76
2023-05-21T20:35:01.639Z,24.48
2023-05-21T20:37:33.868Z,26.02
2023-05-21T20:40:01.562Z,25.81
2023-05-21T20:42:34.791Z,25.78
2023-05-21T20:45:03.308Z,26.01
2023-05-21T20:47:31.062Z,27.06
2023-05-21T20:49:59.809Z,26.45
2023-05-21T20:52:27.530Z,26.36
2023-05-21T20:54:59.556Z,25.15
2023-05-21T20:57:27.469Z,27.77
2023-05-21T20:59:55.121Z,26.76
2023-05-21T21:02:22.909Z,25.08
2023-05-21T21:04:50.980Z,25.65
2023-05-21T21:07:19.088Z,25.66
2023-05-21T21:09:46.909Z,25.91
2023-05-21T21:12:26.137Z,25.61
2023-05-21T21:14:54.346Z,26.47
2023-05-21T21:17:22.175Z,25.92
2023-05-21T21:19:49.894Z,26.47
2023-05-21T21:22:18.139Z,25.71
2023-05-21T21:24:45.949Z,26.69
2023-05-21T21:27:13.642Z,25.79
2023-05-21T21:29:42.697Z,26.61
2023-05-21T21:32:10.433Z,25.12
2023-05-21T21:34:38.080Z,25.60
2023-05-21T21:37:05.865Z,25.82
2023-05-21T21:39:33.489Z,25.65
2023-05-21T21:42:01.156Z,28.42
2023-05-21T21:44:28.762Z,26.63
2023-05-21T21:46:57.746Z,27.36
2023-05-21T21:49:25.638Z,26.97
2023-05-21T21:51:53.489Z,26.50
2023-05-21T21:54:21.202Z,26.58
2023-05-21T21:56:48.843Z,25.69
2023-05-21T21:59:16.848Z,26.15
2023-05-21T22:01:44.693Z,26.85
2023-05-21T22:04:13.797Z,27.88
2023-05-21T22:06:41.465Z,27.76
2023-05-21T22:09:09.248Z,27.35
2023-05-21T22:11:37.192Z,28.51
2023-05-21T22:14:05.928Z,27.49
2023-05-21T22:16:34.223Z,29.42
2023-05-21T22:19:02.293Z,28.87
2023-05-21T22:21:32.869Z,28.83
2023-05-21T22:24:00.663Z,29.35
2023-05-21T22:26:28.328Z,30.12
2023-05-21T22:28:55.993Z,28.37
2023-05-21T22:31:23.737Z,29.75
2023-05-21T22:33:51.479Z,28.35
2023-05-21T22:36:19.151Z,27.46
2023-05-21T22:38:48.142Z,26.95
2023-05-21T22:41:15.786Z,28.50
2023-05-21T22:43:43.683Z,27.93
2023-05-21T22:46:11.367Z,27.23
2023-05-21T22:48:41.835Z,28.61
2023-05-21T22:51:11.381Z,27.42
2023-05-21T22:53:39.033Z,27.36
2023-05-21T22:56:08.241Z,28.72
2023-05-21T22:58:36.688Z,28.64
2023-05-21T23:01:04.732Z,29.52
2023-05-21T23:03:32.357Z,30.51
2023-05-21T23:06:00.030Z,29.01
2023-05-21T23:08:27.797Z,29.69
2023-05-21T23:10:55.415Z,30.09
2023-05-21T23:13:24.441Z,30.76
2023-05-21T23:15:52.086Z,29.97
2023-05-21T23:18:19.797Z,30.84
2023-05-21T23:20:47.497Z,30.69
2023-05-21T23:23:15.140Z,29.91
2023-05-21T23:25:42.774Z,31.33
2023-05-21T23:28:10.744Z,31.46
2023-05-21T23:30:40.174Z,30.51
2023-05-21T23:33:08.034Z,29.56
2023-05-21T23:35:35.765Z,30.89
2023-05-21T23:38:03.596Z,29.55
2023-05-21T23:40:31.256Z,29.05
2023-05-21T23:42:58.869Z,29.92
2023-05-21T23:45:26.491Z,29.70
2023-05-21T23:47:55.578Z,31.07
2023-05-21T23:50:23.862Z,33.81
2023-05-21T23:52:51.547Z,31.76
2023-05-21T23:55:19.209Z,32.11
2023-05-21T23:57:46.873Z,31.05
